Time;durP1;ratioP1;P1;durP2;ratioP2;P2;SDS_P1;SDS_P2;PMS_P1;PMS_P2;Temp;Humidity;BMP_temperature;BMP_pressure;BME280_temperature;BME280_humidity;BME280_pressure;Samples;Min_cycle;Max_cycle;Signal;HPM_P1;HPM_P2
2022/02/26 00:02:03;;;;;;;0.00;0.00;;;;;;;5.09;51.87;99227.59;4829398;29;20057;-79
2022/02/26 00:04:29;;;;;;;0.00;0.00;;;;;;;5.07;51.98;99227.00;4844954;29;20470;-79
2022/02/26 00:06:54;;;;;;;0.00;0.00;;;;;;;5.05;51.81;99221.13;4861416;29;20487;-79
2022/02/26 00:09:20;;;;;;;0.00;0.00;;;;;;;5.06;51.81;99220.09;4869154;29;20045;-79
2022/02/26 00:11:45;;;;;;;0.00;0.00;;;;;;;5.09;51.50;99224.13;4859025;29;20409;-81
2022/02/26 00:14:11;;;;;;;0.00;0.00;;;;;;;5.09;52.02;99234.72;4839466;29;20089;-82
2022/02/26 00:16:36;;;;;;;0.00;0.00;;;;;;;5.08;51.64;99227.84;4840606;29;20546;-81
2022/02/26 00:19:02;;;;;;;0.00;0.00;;;;;;;5.08;51.50;99233.13;4827156;29;20509;-80
2022/02/26 00:21:28;;;;;;;0.00;0.00;;;;;;;5.07;51.57;99242.13;4835540;29;20037;-79
2022/02/26 00:23:53;;;;;;;0.00;0.00;;;;;;;5.06;51.88;99245.81;4825678;29;20041;-79
2022/02/26 00:26:22;;;;;;;0.00;0.00;;;;;;;5.04;51.95;99242.59;4842737;29;20045;-79
2022/02/26 00:28:48;;;;;;;0.00;0.00;;;;;;;4.95;52.51;99245.59;4835812;29;20094;-79
2022/02/26 00:31:15;;;;;;;0.00;0.00;;;;;;;4.94;52.78;99238.69;4825277;29;20165;-80
2022/02/26 00:33:41;;;;;;;0.00;0.00;;;;;;;4.97;52.77;99248.03;4852233;29;20032;-78
2022/02/26 00:36:07;;;;;;;0.00;0.00;;;;;;;4.90;52.98;99248.13;4859062;29;20034;-79
2022/02/26 00:38:32;;;;;;;0.00;0.00;;;;;;;4.87;52.67;99251.28;4859991;29;20048;-79
2022/02/26 00:40:57;;;;;;;0.00;0.00;;;;;;;4.81;53.13;99247.69;4843209;29;20045;-79
2022/02/26 00:43:24;;;;;;;0.00;0.00;;;;;;;4.99;52.50;99242.47;4857425;29;20124;-78
2022/02/26 00:45:50;;;;;;;0.00;0.00;;;;;;;4.93;52.45;99234.44;4843328;29;20549;-78
2022/02/26 00:48:15;;;;;;;0.00;0.00;;;;;;;4.89;52.49;99240.44;4859568;29;20108;-77
2022/02/26 00:50:41;;;;;;;0.00;0.00;;;;;;;4.85;52.29;99234.00;4859409;29;20124;-78
2022/02/26 00:53:06;;;;;;;0.00;0.00;;;;;;;4.78;52.21;99212.91;4841856;29;20034;-79
2022/02/26 00:55:32;;;;;;;0.00;0.00;;;;;;;4.76;51.99;99215.81;4859975;29;20037;-80
2022/02/26 00:57:58;;;;;;;0.00;0.00;;;;;;;4.68;52.10;99204.75;4843131;29;20061;-79
2022/02/26 01:00:23;;;;;;;0.00;0.00;;;;;;;4.62;51.87;99219.72;4842815;29;20500;-79
2022/02/26 01:02:49;;;;;;;0.00;0.00;;;;;;;4.50;52.18;99225.03;4841720;29;20038;-79
2022/02/26 01:05:14;;;;;;;0.00;0.00;;;;;;;4.45;52.40;99217.78;4845367;29;20490;-79
2022/02/26 01:07:40;;;;;;;0.00;0.00;;;;;;;4.41;52.30;99215.84;4843133;29;20487;-79
2022/02/26 01:10:06;;;;;;;0.00;0.00;;;;;;;4.42;52.44;99226.19;4840745;29;20451;-78
2022/02/26 01:12:32;;;;;;;0.00;0.00;;;;;;;4.38;52.85;99230.34;4855851;29;20137;-78
2022/02/26 01:14:58;;;;;;;0.00;0.00;;;;;;;4.33;53.17;99220.44;4852723;29;20514;-78
2022/02/26 01:17:24;;;;;;;0.00;0.00;;;;;;;4.36;53.09;99235.06;4848116;29;20034;-79
2022/02/26 01:19:50;;;;;;;0.00;0.00;;;;;;;4.28;53.48;99230.91;4847769;29;20048;-79
2022/02/26 01:22:16;;;;;;;0.00;0.00;;;;;;;4.31;53.45;99230.44;4824594;29;20045;-79
2022/02/26 01:24:42;;;;;;;0.00;0.00;;;;;;;4.29;53.62;99234.38;4843252;29;20041;-78
2022/02/26 01:27:07;;;;;;;0.00;0.00;;;;;;;4.24;53.89;99229.75;4859018;29;20034;-80
2022/02/26 01:29:33;;;;;;;0.00;0.00;;;;;;;4.24;53.74;99228.97;4842585;29;20037;-79
2022/02/26 01:31:58;;;;;;;0.00;0.00;;;;;;;4.21;53.09;99224.94;4854127;29;20026;-79
2022/02/26 01:34:24;;;;;;;0.00;0.00;;;;;;;4.19;53.76;99226.19;4824372;29;20101;-79
2022/02/26 01:36:49;;;;;;;0.00;0.00;;;;;;;4.19;53.70;99221.72;4825272;29;20543;-78
2022/02/26 01:39:18;;;;;;;0.00;0.00;;;;;;;4.15;53.65;99217.88;4840853;29;20037;-78
2022/02/26 01:41:44;;;;;;;0.00;0.00;;;;;;;4.12;53.64;99210.41;4843018;29;20040;-79
2022/02/26 01:44:10;;;;;;;0.00;0.00;;;;;;;4.12;54.33;99218.34;4857754;29;20045;-78
2022/02/26 01:46:36;;;;;;;0.00;0.00;;;;;;;4.12;53.87;99218.34;4838623;29;20045;-79
2022/02/26 01:49:01;;;;;;;0.00;0.00;;;;;;;4.16;54.08;99225.63;4843147;29;20038;-79
2022/02/26 01:51:27;;;;;;;0.00;0.00;;;;;;;4.11;54.09;99212.28;4842143;29;20041;-78
2022/02/26 01:53:52;;;;;;;0.00;0.00;;;;;;;4.12;54.06;99210.41;4859415;29;20029;-78
2022/02/26 01:56:19;;;;;;;0.00;0.00;;;;;;;4.07;54.59;99229.63;4840983;29;20033;-79
2022/02/26 01:58:45;;;;;;;0.00;0.00;;;;;;;4.03;54.61;99227.66;4857059;29;20045;-78
2022/02/26 02:01:11;;;;;;;0.00;0.00;;;;;;;4.01;54.48;99228.69;4846860;29;20041;-78
2022/02/26 02:03:37;;;;;;;0.00;0.00;;;;;;;4.05;54.25;99231.69;4855701;29;20052;-79
2022/02/26 02:06:03;;;;;;;0.00;0.00;;;;;;;3.99;54.41;99220.19;4826059;29;20510;-79
2022/02/26 02:08:29;;;;;;;0.00;0.00;;;;;;;4.01;54.79;99227.91;4849558;29;20112;-78
2022/02/26 02:10:55;;;;;;;0.00;0.00;;;;;;;4.00;54.51;99226.28;4844064;29;20489;-78
2022/02/26 02:13:21;;;;;;;0.00;0.00;;;;;;;4.05;54.63;99230.91;4840417;29;20117;-79
2022/02/26 02:15:47;;;;;;;0.00;0.00;;;;;;;4.03;54.14;99235.59;4828868;29;20052;-79
2022/02/26 02:18:15;;;;;;;0.00;0.00;;;;;;;4.00;54.21;99235.03;4850540;29;20075;-79
2022/02/26 02:20:43;;;;;;;0.00;0.00;;;;;;;3.99;54.20;99222.84;4841120;29;20034;-79
2022/02/26 02:23:09;;;;;;;0.00;0.00;;;;;;;3.99;54.29;99229.94;4843042;29;20101;-79
2022/02/26 02:25:36;;;;;;;0.00;0.00;;;;;;;4.01;54.41;99236.63;4850678;29;20038;-78
2022/02/26 02:28:04;;;;;;;0.00;0.00;;;;;;;4.00;54.65;99232.41;4853597;29;20532;-77
2022/02/26 02:30:30;;;;;;;0.00;0.00;;;;;;;3.96;54.86;99231.22;4860696;29;20498;-78
2022/02/26 02:32:57;;;;;;;0.00;0.00;;;;;;;3.95;55.09;99240.19;4856981;29;20041;-79
2022/02/26 02:35:40;;;;;;;0.00;0.00;;;;;;;3.91;55.09;99244.34;4852389;29;20178;-77
2022/02/26 02:38:17;;;;;;;0.00;0.00;;;;;;;3.89;55.33;99243.75;4844280;29;20041;-77
2022/02/26 02:40:45;;;;;;;0.22;0.22;;;;;;;3.82;55.00;99238.56;4844383;29;20178;-79
2022/02/26 02:43:11;;;;;;;0.00;0.00;;;;;;;3.77;55.07;99235.81;4859687;29;20529;-79
2022/02/26 02:45:38;;;;;;;0.00;0.00;;;;;;;3.78;55.30;99245.31;4856523;29;20045;-78
2022/02/26 02:48:04;;;;;;;0.15;0.15;;;;;;;3.78;55.32;99249.81;4855604;29;20048;-78
2022/02/26 02:50:30;;;;;;;0.00;0.00;;;;;;;3.75;55.61;99259.03;4854546;29;20034;-78
2022/02/26 02:52:57;;;;;;;0.00;0.00;;;;;;;3.68;55.54;99247.72;4844056;29;20050;-78
2022/02/26 02:55:23;;;;;;;0.00;0.00;;;;;;;3.67;55.95;99264.63;4844920;29;20542;-81
2022/02/26 02:57:50;;;;;;;0.00;0.00;;;;;;;3.63;56.11;99260.81;4826966;29;20134;-79
2022/02/26 03:00:17;;;;;;;0.00;0.00;;;;;;;3.57;55.63;99267.81;4835496;29;20417;-79
2022/02/26 03:02:43;;;;;;;0.00;0.00;;;;;;;3.55;55.87;99261.94;4834669;29;20037;-79
2022/02/26 03:05:10;;;;;;;0.00;0.00;;;;;;;3.57;55.93;99259.88;4830595;29;20517;-79
2022/02/26 03:07:36;;;;;;;0.00;0.00;;;;;;;3.57;55.86;99261.72;4843186;29;20391;-79
2022/02/26 03:10:04;;;;;;;0.00;0.00;;;;;;;3.62;55.85;99260.00;4845154;29;20064;-79
2022/02/26 03:12:30;;;;;;;0.00;0.00;;;;;;;3.58;56.03;99258.84;4858688;29;20038;-78
2022/02/26 03:14:56;;;;;;;0.00;0.00;;;;;;;3.65;56.20;99266.69;4856781;29;20132;-80
2022/02/26 03:17:21;;;;;;;0.00;0.00;;;;;;;3.68;56.13;99259.09;4828631;29;20565;-79
2022/02/26 03:19:49;;;;;;;0.00;0.00;;;;;;;3.67;56.15;99259.34;4843789;29;20048;-80
2022/02/26 03:22:17;;;;;;;0.00;0.00;;;;;;;3.69;56.19;99265.22;4856832;29;20093;-80
2022/02/26 03:24:42;;;;;;;0.00;0.00;;;;;;;3.69;56.14;99260.72;4830376;29;20120;-78
2022/02/26 03:27:08;;;;;;;0.00;0.00;;;;;;;3.72;55.93;99266.59;4860309;29;20116;-80
2022/02/26 03:29:34;;;;;;;0.00;0.00;;;;;;;3.73;56.07;99263.72;4844354;29;20069;-79
2022/02/26 03:31:59;;;;;;;0.00;0.00;;;;;;;3.69;56.08;99263.34;4844737;29;20033;-79
2022/02/26 03:34:25;;;;;;;0.00;0.00;;;;;;;3.66;56.31;99263.81;4852723;29;20030;-79
2022/02/26 03:36:53;;;;;;;0.00;0.00;;;;;;;3.65;56.25;99259.56;4847510;29;20520;-79
2022/02/26 03:39:19;;;;;;;0.00;0.00;;;;;;;3.68;56.24;99264.38;4850292;29;20057;-79
2022/02/26 03:41:45;;;;;;;0.00;0.00;;;;;;;3.72;56.40;99258.66;4836922;29;20497;-80
2022/02/26 03:44:11;;;;;;;0.00;0.00;;;;;;;3.69;56.29;99263.34;4848060;29;20038;-79
2022/02/26 03:46:37;;;;;;;0.00;0.00;;;;;;;3.68;56.43;99263.59;4837340;29;20049;-79
2022/02/26 03:49:04;;;;;;;0.00;0.00;;;;;;;3.67;56.64;99273.38;4839691;29;20089;-79
2022/02/26 03:51:31;;;;;;;0.00;0.00;;;;;;;3.64;56.14;99279.09;4839123;29;20514;-79
2022/02/26 03:53:56;;;;;;;0.00;0.00;;;;;;;3.64;56.73;99276.47;4844176;29;20042;-79
2022/02/26 03:56:22;;;;;;;0.00;0.00;;;;;;;3.63;57.05;99284.63;4858044;29;20517;-79
2022/02/26 03:58:50;;;;;;;0.00;0.00;;;;;;;3.61;56.96;99274.25;4857389;29;20030;-79
2022/02/26 04:01:18;;;;;;;0.00;0.00;;;;;;;3.57;56.72;99282.88;4854984;29;20042;-78
2022/02/26 04:03:45;;;;;;;0.00;0.00;;;;;;;3.51;56.98;99289.84;4828384;29;20053;-79
2022/02/26 04:06:11;;;;;;;0.00;0.00;;;;;;;3.48;56.99;99285.03;4826790;29;20094;-79
2022/02/26 04:08:37;;;;;;;0.00;0.00;;;;;;;3.44;57.13;99286.50;4827658;29;20490;-78
2022/02/26 04:11:02;;;;;;;0.00;0.00;;;;;;;3.35;57.70;99289.44;4842434;29;20021;-78
2022/02/26 04:13:28;;;;;;;0.00;0.00;;;;;;;3.33;57.46;99291.50;4842499;29;20056;-77
2022/02/26 04:15:53;;;;;;;0.00;0.00;;;;;;;3.26;57.60;99288.13;4848767;29;20388;-77
2022/02/26 04:18:18;;;;;;;0.00;0.00;;;;;;;3.21;57.97;99290.66;4854576;29;20038;-77
2022/02/26 04:20:44;;;;;;;0.00;0.00;;;;;;;3.17;57.71;99292.09;4850022;29;20125;-77
2022/02/26 04:23:09;;;;;;;0.00;0.00;;;;;;;3.15;57.97;99294.97;4858767;29;20041;-77
2022/02/26 04:25:35;;;;;;;0.00;0.00;;;;;;;3.15;58.31;99302.06;4859955;29;20045;-77
2022/02/26 04:28:03;;;;;;;0.00;0.00;;;;;;;3.10;58.19;99301.94;4845787;29;20038;-78
2022/02/26 04:30:28;;;;;;;0.00;0.00;;;;;;;3.03;58.51;99292.25;4850991;29;20067;-78
2022/02/26 04:32:54;;;;;;;0.00;0.00;;;;;;;3.01;58.67;99301.41;4843207;29;20191;-78
2022/02/26 04:35:20;;;;;;;0.00;0.00;;;;;;;2.98;58.61;99296.56;4841625;29;20034;-78
2022/02/26 04:37:45;;;;;;;0.00;0.00;;;;;;;2.98;58.39;99296.56;4825764;29;20129;-77
2022/02/26 04:40:11;;;;;;;0.00;0.00;;;;;;;2.95;58.65;99303.09;4841724;29;20033;-77
2022/02/26 04:42:38;;;;;;;0.00;0.00;;;;;;;2.93;58.36;99305.16;4850725;29;20034;-77
2022/02/26 04:45:06;;;;;;;0.00;0.00;;;;;;;2.88;58.70;99307.63;4857927;29;20078;-79
2022/02/26 04:47:31;;;;;;;0.00;0.00;;;;;;;2.88;58.55;99307.63;4838847;29;20044;-77
2022/02/26 04:49:57;;;;;;;0.00;0.00;;;;;;;2.87;59.08;99312.13;4842181;29;20038;-76
2022/02/26 04:52:22;;;;;;;0.00;0.00;;;;;;;2.85;59.01;99310.72;4855957;29;20522;-77
2022/02/26 04:54:48;;;;;;;0.00;0.00;;;;;;;2.81;58.70;99315.63;4856094;29;20478;-78
2022/02/26 04:57:13;;;;;;;0.00;0.00;;;;;;;2.84;58.73;99327.59;4827388;29;20044;-78
2022/02/26 04:59:39;;;;;;;0.00;0.00;;;;;;;2.81;58.76;99325.41;4851915;29;20109;-77
2022/02/26 05:02:05;;;;;;;0.00;0.00;;;;;;;2.82;58.69;99327.00;4859298;29;20037;-77
2022/02/26 05:04:30;;;;;;;0.00;0.00;;;;;;;2.86;58.70;99333.47;4859896;29;20386;-77
2022/02/26 05:06:56;;;;;;;0.00;0.00;;;;;;;2.84;58.39;99323.13;4853162;29;20048;-77
2022/02/26 05:09:21;;;;;;;0.00;0.00;;;;;;;2.84;58.54;99341.59;4853126;29;20049;-77
2022/02/26 05:11:47;;;;;;;0.00;0.00;;;;;;;2.87;58.47;99333.25;4858190;29;20498;-78
2022/02/26 05:14:12;;;;;;;0.00;0.00;;;;;;;2.85;58.11;99337.94;4841439;29;20057;-78
2022/02/26 05:16:38;;;;;;;0.10;0.10;;;;;;;2.90;58.43;99347.88;4851349;29;20123;-78
2022/02/26 05:19:04;;;;;;;0.00;0.00;;;;;;;2.91;57.88;99348.69;4855935;29;20111;-79
2022/02/26 05:21:29;;;;;;;0.00;0.00;;;;;;;2.94;58.13;99348.22;4871091;29;20036;-78
2022/02/26 05:23:54;;;;;;;0.00;0.00;;;;;;;2.94;57.60;99356.97;4842997;29;20034;-78
2022/02/26 05:26:20;;;;;;;0.00;0.00;;;;;;;2.91;58.00;99348.69;4840354;29;20063;-77
2022/02/26 05:28:45;;;;;;;0.00;0.00;;;;;;;2.93;58.22;99365.94;4858312;29;20030;-78
2022/02/26 05:31:11;;;;;;;0.00;0.00;;;;;;;2.94;57.96;99353.53;4838868;29;20077;-78
2022/02/26 05:33:37;;;;;;;0.08;0.08;;;;;;;2.99;57.81;99365.06;4857782;29;20088;-78
2022/02/26 05:36:04;;;;;;;0.00;0.00;;;;;;;3.03;57.95;99374.16;4843814;29;20056;-77
2022/02/26 05:38:30;;;;;;;0.00;0.00;;;;;;;3.08;57.56;99376.16;4837141;29;20053;-78
2022/02/26 05:40:56;;;;;;;0.00;0.00;;;;;;;3.16;57.72;99373.22;4858474;29;20033;-78
2022/02/26 05:43:22;;;;;;;0.00;0.00;;;;;;;3.27;57.93;99386.72;4840432;29;20101;-75
2022/02/26 05:45:47;;;;;;;0.00;0.00;;;;;;;3.36;56.98;99388.06;4868260;29;20067;-75
2022/02/26 05:48:13;;;;;;;0.00;0.00;;;;;;;3.53;57.40;99393.59;4846875;29;20041;-75
2022/02/26 05:50:39;;;;;;;0.00;0.00;;;;;;;3.69;57.06;99392.19;4857481;29;20519;-75
2022/02/26 05:53:04;;;;;;;0.00;0.00;;;;;;;3.92;56.94;99398.59;4853149;29;20040;-79
2022/02/26 05:55:31;;;;;;;0.00;0.00;;;;;;;4.15;57.95;99401.34;4847799;29;20477;-79
2022/02/26 05:57:57;;;;;;;0.00;0.00;;;;;;;4.38;57.17;99412.25;4842751;29;20093;-76
2022/02/26 06:00:23;;;;;;;0.00;0.00;;;;;;;4.54;56.59;99402.84;4829085;29;20124;-79
2022/02/26 06:02:48;;;;;;;0.00;0.00;;;;;;;4.72;56.09;99407.25;4844974;29;20499;-79
2022/02/26 06:05:14;;;;;;;0.00;0.00;;;;;;;4.95;55.36;99407.25;4842547;29;20052;-78
2022/02/26 06:07:39;;;;;;;0.00;0.00;;;;;;;5.14;55.22;99407.19;4829788;29;20064;-76
2022/02/26 06:10:05;;;;;;;7.43;1.10;;;;;;;5.34;54.84;99411.31;4857682;29;20037;-77
2022/02/26 06:12:31;;;;;;;0.00;0.00;;;;;;;5.54;54.46;99416.22;4851176;29;20410;-75
2022/02/26 06:14:56;;;;;;;0.00;0.00;;;;;;;5.70;53.56;99420.00;4839708;29;20034;-74
2022/02/26 06:17:22;;;;;;;0.00;0.00;;;;;;;5.86;53.15;99423.78;4839643;29;20117;-75
2022/02/26 06:19:47;;;;;;;0.00;0.00;;;;;;;6.01;52.19;99418.81;4839741;29;20112;-74
2022/02/26 06:22:14;;;;;;;0.00;0.00;;;;;;;6.20;52.40;99414.13;4839693;29;20112;-77
2022/02/26 06:24:39;;;;;;;0.00;0.00;;;;;;;6.36;51.91;99412.53;4845572;29;20116;-78
2022/02/26 06:27:05;;;;;;;0.85;0.85;;;;;;;6.52;51.51;99421.56;4841672;29;20413;-78
2022/02/26 06:29:30;;;;;;;0.03;0.03;;;;;;;6.73;50.91;99417.41;4857648;29;20037;-78
2022/02/26 06:31:55;;;;;;;0.00;0.00;;;;;;;6.92;50.64;99425.16;4841572;29;20040;-77
2022/02/26 06:34:21;;;;;;;0.00;0.00;;;;;;;7.05;49.63;99431.97;4858100;29;20041;-77
2022/02/26 06:36:46;;;;;;;0.00;0.00;;;;;;;7.13;50.02;99428.91;4858100;29;20073;-78
2022/02/26 06:39:12;;;;;;;0.00;0.00;;;;;;;7.29;49.46;99437.13;4858000;29;20030;-73
2022/02/26 06:41:38;;;;;;;0.15;0.15;;;;;;;7.40;49.87;99440.72;4857809;29;20402;-75
2022/02/26 06:44:04;;;;;;;0.00;0.00;;;;;;;7.52;49.99;99446.75;4858032;29;20064;-74
2022/02/26 06:46:30;;;;;;;0.00;0.00;;;;;;;7.60;49.03;99450.84;4857943;29;20037;-74
2022/02/26 06:48:56;;;;;;;0.00;0.00;;;;;;;7.68;48.71;99463.75;4858568;29;20030;-72
2022/02/26 06:51:21;;;;;;;0.03;0.03;;;;;;;7.81;49.58;99466.03;4864422;29;20108;-77
2022/02/26 06:53:47;;;;;;;0.00;0.00;;;;;;;7.90;49.86;99478.91;4868936;29;20120;-76
2022/02/26 06:56:12;;;;;;;0.00;0.00;;;;;;;8.08;49.62;99475.94;4858796;29;20431;-79
2022/02/26 06:58:38;;;;;;;0.00;0.00;;;;;;;8.14;49.44;99472.28;4855804;29;20041;-76
2022/02/26 07:01:04;;;;;;;0.03;0.03;;;;;;;8.17;48.84;99477.09;4841976;29;20094;-75
2022/02/26 07:03:30;;;;;;;0.20;0.20;;;;;;;8.30;48.86;99485.75;4840523;29;20098;-76
2022/02/26 07:05:55;;;;;;;2.58;2.38;;;;;;;8.38;49.02;99481.88;4855410;29;20509;-74
2022/02/26 07:08:21;;;;;;;0.05;0.05;;;;;;;8.48;49.59;99471.31;4837428;29;20030;-74
2022/02/26 07:10:47;;;;;;;0.00;0.00;;;;;;;8.59;48.89;99480.25;4849993;29;20069;-73
2022/02/26 07:13:13;;;;;;;0.28;0.28;;;;;;;8.61;47.99;99475.47;4861354;29;20087;-74
2022/02/26 07:15:38;;;;;;;0.00;0.00;;;;;;;8.66;48.08;99486.16;4849514;29;20037;-73
2022/02/26 07:18:05;;;;;;;0.20;0.20;;;;;;;8.64;48.20;99477.63;4859933;29;20033;-74
2022/02/26 07:20:30;;;;;;;0.00;0.00;;;;;;;8.72;48.36;99485.16;4860893;29;20025;-73
2022/02/26 07:22:56;;;;;;;0.08;0.08;;;;;;;8.78;48.77;99484.16;4861051;29;20482;-75
2022/02/26 07:26:06;;;;;;;0.00;0.00;;;;;;;8.83;48.94;99485.28;4837879;29;20511;-82
2022/02/26 07:31:55;;;;;;;0.20;0.20;;;;;;;9.02;47.46;99480.34;4888449;29;20055;-78
2022/02/26 07:34:20;;;;;;;0.30;0.30;;;;;;;9.12;46.81;99483.91;4861035;29;20486;-77
2022/02/26 07:36:46;;;;;;;0.00;0.00;;;;;;;9.13;44.96;99482.06;4844130;29;20029;-74
2022/02/26 07:39:11;;;;;;;0.10;0.10;;;;;;;9.12;45.40;99475.09;4860937;29;20124;-74
2022/02/26 07:41:37;;;;;;;0.00;0.00;;;;;;;9.10;42.98;99477.22;4859659;29;20056;-74
2022/02/26 07:44:03;;;;;;;0.00;0.00;;;;;;;9.12;41.61;99472.44;4842726;29;20066;-75
2022/02/26 07:46:28;;;;;;;0.35;0.35;;;;;;;9.16;41.79;99475.41;4842037;29;20116;-75
2022/02/26 07:48:54;;;;;;;0.00;0.00;;;;;;;9.25;42.82;99469.31;4840090;29;20097;-75
2022/02/26 07:51:19;;;;;;;0.00;0.00;;;;;;;9.38;43.02;99469.94;4861117;29;20077;-76
2022/02/26 07:53:45;;;;;;;0.10;0.10;;;;;;;9.45;42.67;99471.31;4860429;29;20482;-75
2022/02/26 07:56:14;;;;;;;0.10;0.10;;;;;;;9.54;43.46;99473.50;4844655;29;20029;-77
2022/02/26 07:58:39;;;;;;;0.00;0.00;;;;;;;9.59;43.54;99477.00;4842420;29;20494;-76
2022/02/26 08:01:05;;;;;;;0.00;0.00;;;;;;;9.66;43.60;99476.78;4842743;29;20122;-78
2022/02/26 08:03:30;;;;;;;0.90;0.55;;;;;;;9.67;43.72;99472.25;4839028;29;20101;-78
2022/02/26 08:05:56;;;;;;;0.00;0.00;;;;;;;9.74;43.64;99470.94;4844044;29;20068;-78
2022/02/26 08:08:22;;;;;;;0.03;0.03;;;;;;;9.85;44.37;99479.81;4860989;29;20522;-79
2022/02/26 08:10:48;;;;;;;0.00;0.00;;;;;;;9.86;43.47;99467.25;4843057;29;20033;-79
2022/02/26 08:13:14;;;;;;;0.30;0.30;;;;;;;9.94;43.83;99477.44;4843558;29;20054;-79
2022/02/26 08:15:40;;;;;;;0.00;0.00;;;;;;;9.99;43.41;99480.13;4843396;29;20061;-78
2022/02/26 08:18:07;;;;;;;0.10;0.10;;;;;;;10.05;43.75;99471.06;4842453;29;20458;-79
2022/02/26 08:20:32;;;;;;;0.00;0.00;;;;;;;10.15;42.59;99469.50;4858152;29;20045;-77
2022/02/26 08:22:58;;;;;;;0.00;0.00;;;;;;;10.19;41.37;99470.56;4860347;29;20092;-80
2022/02/26 08:25:24;;;;;;;0.00;0.00;;;;;;;10.31;41.01;99468.47;4859964;29;20109;-88
2022/02/26 08:27:50;;;;;;;0.17;0.17;;;;;;;10.45;41.04;99457.28;4828150;29;20053;-79
2022/02/26 08:30:18;;;;;;;0.00;0.00;;;;;;;10.63;41.16;99456.81;4860027;29;20060;-79
2022/02/26 08:32:44;;;;;;;0.15;0.15;;;;;;;10.69;41.46;99461.09;4855048;29;20038;-79
2022/02/26 08:35:11;;;;;;;0.00;0.00;;;;;;;10.72;41.56;99463.22;4858707;29;20033;-78
2022/02/26 08:37:37;;;;;;;0.00;0.00;;;;;;;10.82;40.86;99470.44;4834250;29;20488;-78
2022/02/26 08:40:05;;;;;;;0.40;0.40;;;;;;;10.85;40.76;99456.56;4841626;29;20042;-78
2022/02/26 08:42:31;;;;;;;0.10;0.10;;;;;;;10.79;41.22;99460.28;4840931;29;20070;-78
2022/02/26 08:44:56;;;;;;;0.03;0.03;;;;;;;10.82;41.80;99458.97;4825057;29;20137;-78
2022/02/26 08:47:22;;;;;;;0.00;0.00;;;;;;;10.83;40.26;99457.88;4834640;29;20081;-77
2022/02/26 08:49:48;;;;;;;0.00;0.00;;;;;;;10.92;40.05;99469.66;4859705;29;20025;-78
2022/02/26 08:52:14;;;;;;;1.95;1.20;;;;;;;10.85;40.96;99475.28;4842879;29;20037;-77
2022/02/26 08:54:40;;;;;;;0.30;0.30;;;;;;;10.77;39.80;99461.63;4859944;29;20037;-77
2022/02/26 08:57:05;;;;;;;0.00;0.00;;;;;;;10.81;40.73;99468.06;4843059;29;20117;-79
2022/02/26 08:59:32;;;;;;;0.20;0.15;;;;;;;10.80;39.36;99459.22;4853864;29;20038;-77
2022/02/26 09:01:58;;;;;;;0.47;0.47;;;;;;;10.78;38.50;99461.38;4841363;29;20045;-78
2022/02/26 09:04:24;;;;;;;0.20;0.20;;;;;;;10.86;38.97;99462.69;4843049;29;20053;-77
2022/02/26 09:06:50;;;;;;;0.10;0.10;;;;;;;10.96;39.40;99465.38;4854635;29;20435;-77
2022/02/26 09:09:15;;;;;;;1.45;1.35;;;;;;;11.01;38.37;99462.69;4859701;29;20033;-77
2022/02/26 09:11:41;;;;;;;0.00;0.00;;;;;;;11.05;37.38;99461.09;4842604;29;20546;-79
2022/02/26 09:14:08;;;;;;;0.10;0.10;;;;;;;11.04;38.13;99458.69;4833724;29;20057;-78
2022/02/26 09:16:34;;;;;;;0.00;0.00;;;;;;;11.01;39.41;99457.34;4826538;29;20037;-79
2022/02/26 09:19:00;;;;;;;0.00;0.00;;;;;;;10.95;38.84;99454.94;4840034;29;20045;-78
2022/02/26 09:21:26;;;;;;;0.00;0.00;;;;;;;10.88;40.25;99457.88;4838699;29;20113;-78
2022/02/26 09:23:52;;;;;;;0.00;0.00;;;;;;;10.81;39.75;99455.47;4840751;29;20033;-78
2022/02/26 09:26:18;;;;;;;0.20;0.20;;;;;;;10.67;42.22;99459.75;4841354;29;20479;-77
2022/02/26 09:28:43;;;;;;;0.22;0.22;;;;;;;10.69;40.93;99463.78;4824388;29;20033;-79
2022/02/26 09:31:12;;;;;;;0.10;0.10;;;;;;;10.65;40.31;99462.69;4824369;29;20422;-77
2022/02/26 09:33:40;;;;;;;0.22;0.22;;;;;;;10.55;40.66;99463.47;4847913;29;20116;-77
2022/02/26 09:36:08;;;;;;;0.00;0.00;;;;;;;10.55;40.72;99447.41;4824933;29;20030;-77
2022/02/26 09:38:35;;;;;;;0.68;0.68;;;;;;;10.54;40.87;99459.19;4824355;29;20106;-79
2022/02/26 09:41:04;;;;;;;0.00;0.00;;;;;;;10.47;39.91;99450.59;4824800;29;20034;-78
2022/02/26 09:43:30;;;;;;;2.35;0.85;;;;;;;10.43;38.99;99454.91;4840805;29;20409;-78
2022/02/26 09:45:57;;;;;;;0.08;0.08;;;;;;;10.32;38.45;99450.56;4840493;29;20034;-78
2022/02/26 09:48:23;;;;;;;0.00;0.00;;;;;;;10.34;39.37;99457.25;4846012;29;20517;-79
2022/02/26 09:50:52;;;;;;;0.25;0.25;;;;;;;10.33;39.38;99455.66;4840552;29;20056;-78
2022/02/26 09:53:18;;;;;;;0.85;0.85;;;;;;;10.40;40.75;99453.56;4855793;29;20045;-77
2022/02/26 09:55:44;;;;;;;0.22;0.22;;;;;;;10.43;40.69;99454.91;4858221;29;20037;-78
2022/02/26 09:58:11;;;;;;;0.10;0.10;;;;;;;10.48;39.20;99448.75;4858970;29;20092;-78
2022/02/26 10:00:37;;;;;;;0.10;0.10;;;;;;;10.46;42.00;99438.34;4842231;29;20498;-78
2022/02/26 10:03:04;;;;;;;0.00;0.00;;;;;;;10.59;43.20;99442.34;4859386;29;20058;-78
2022/02/26 10:05:30;;;;;;;0.05;0.05;;;;;;;10.64;42.56;99437.00;4858161;29;20049;-77
2022/02/26 10:07:56;;;;;;;0.20;0.20;;;;;;;10.66;42.53;99434.88;4858362;29;20033;-77
2022/02/26 10:10:29;;;;;;;0.32;0.32;;;;;;;10.69;42.82;99441.56;4858568;29;20633;-78
2022/02/26 10:13:00;;;;;;;0.10;0.10;;;;;;;10.67;41.00;99441.81;4857857;29;20132;-82
2022/02/26 10:15:27;;;;;;;0.20;0.20;;;;;;;10.67;40.50;99433.81;4842453;29;20029;-79
2022/02/26 10:21:00;;;;;;;0.43;0.43;;;;;;;10.77;39.34;99427.66;4840017;29;20094;-82
2022/02/26 10:23:26;;;;;;;0.70;0.70;;;;;;;10.76;37.79;99435.94;4833600;29;20022;-81
2022/02/26 10:26:12;;;;;;;0.55;0.55;;;;;;;10.80;38.30;99432.47;4827390;29;20037;-81
2022/02/26 10:28:49;;;;;;;;;;;;;;;10.89;38.52;99420.16;4847436;29;20038;-91
2022/02/26 10:31:14;;;;;;;0.00;0.00;;;;;;;11.02;37.74;99418.00;4839297;29;20376;-79
2022/02/26 10:33:40;;;;;;;0.00;0.00;;;;;;;11.04;39.41;99427.34;4841485;29;20053;-77
2022/02/26 10:36:07;;;;;;;0.35;0.35;;;;;;;11.11;39.96;99415.56;4858316;29;20489;-85
2022/02/26 10:38:35;;;;;;;0.10;0.10;;;;;;;11.23;41.07;99415.28;4841655;29;20092;-89
2022/02/26 10:41:10;;;;;;;0.30;0.30;;;;;;;11.28;39.73;99410.72;4853724;29;20117;-81
2022/02/26 10:43:48;;;;;;;0.40;0.40;;;;;;;11.27;38.76;99413.69;4836872;29;20034;-80
2022/02/26 10:46:30;;;;;;;0.00;0.00;;;;;;;11.30;38.83;99408.59;4859188;29;20025;-79
2022/02/26 10:48:59;;;;;;;0.00;0.00;;;;;;;11.37;38.67;99397.59;4842863;29;20048;-80
2022/02/26 10:51:30;;;;;;;0.68;0.68;;;;;;;11.47;39.17;99407.47;4852073;29;20112;-81
2022/02/26 10:53:57;;;;;;;0.00;0.00;;;;;;;11.52;37.76;99394.06;4844100;29;20057;-80
2022/02/26 10:56:37;;;;;;;0.00;0.00;;;;;;;11.64;36.59;99397.22;4845236;29;20688;-78
2022/02/26 10:59:05;;;;;;;0.10;0.10;;;;;;;11.73;36.12;99397.47;4842481;29;20570;-79
2022/02/26 11:01:32;;;;;;;0.00;0.00;;;;;;;11.79;36.06;99398.22;4836388;29;20049;-79
2022/02/26 11:03:58;;;;;;;0.08;0.08;;;;;;;11.78;36.43;99393.94;4826266;29;20559;-79
2022/02/26 11:06:27;;;;;;;0.00;0.00;;;;;;;11.84;37.10;99390.19;4826526;29;20067;-79
2022/02/26 11:08:53;;;;;;;0.00;0.00;;;;;;;11.87;37.62;99386.94;4826439;29;20124;-80
2022/02/26 11:11:20;;;;;;;0.00;0.00;;;;;;;11.92;36.70;99384.22;4826484;29;20117;-79
2022/02/26 11:13:49;;;;;;;0.00;0.00;;;;;;;12.03;38.24;99387.69;4826110;29;20141;-79
2022/02/26 11:16:17;;;;;;;0.10;0.10;;;;;;;12.10;36.36;99382.03;4826563;29;20037;-79
2022/02/26 11:18:48;;;;;;;0.13;0.13;;;;;;;12.21;37.54;99380.88;4826051;29;20042;-79
2022/02/26 11:21:18;;;;;;;0.00;0.00;;;;;;;12.24;34.49;99382.19;4826650;29;20110;-79
2022/02/26 11:23:45;;;;;;;0.10;0.10;;;;;;;12.15;33.32;99382.00;4825855;29;20037;-79
2022/02/26 11:26:12;;;;;;;0.00;0.00;;;;;;;12.23;34.75;99385.97;4826367;29;20033;-80
2022/02/26 11:28:47;;;;;;;0.05;0.05;;;;;;;12.26;33.43;99382.72;4826279;29;20044;-77
2022/02/26 11:31:22;;;;;;;0.00;0.00;;;;;;;12.27;33.27;99393.19;4826338;29;20034;-80
2022/02/26 11:33:49;;;;;;;0.03;0.03;;;;;;;12.35;33.44;99389.09;4826082;29;20128;-80
2022/02/26 11:36:15;;;;;;;0.20;0.20;;;;;;;12.39;33.18;99387.47;4826205;29;20030;-79
2022/02/26 11:38:43;;;;;;;0.00;0.00;;;;;;;12.44;32.59;99383.97;4825873;29;20045;-80
2022/02/26 11:41:26;;;;;;;0.00;0.00;;;;;;;12.52;32.00;99387.91;4826171;29;20033;-80
2022/02/26 11:44:02;;;;;;;0.10;0.10;;;;;;;12.55;32.26;99382.78;4825578;29;20561;-80